Time;durP1;ratioP1;P1;durP2;ratioP2;P2;SDS_P1;SDS_P2;PMS_P1;PMS_P2;Temp;Humidity;BMP_temperature;BMP_pressure;BME280_temperature;BME280_humidity;BME280_pressure;Samples;Min_cycle;Max_cycle;Signal;HPM_P1;HPM_P2
2022/04/04 00:23:44;;;;;;;4.20;3.80;;;;;;;;;;4286900;31;20530;-67
2022/04/04 00:26:14;;;;;;;5.85;4.55;;;;;;;;;;4290012;33;20118;-68
2022/04/04 00:28:43;;;;;;;5.60;4.78;;;;;;;;;;4290356;33;20084;-68
2022/04/04 00:31:09;;;;;;;7.25;5.18;;;;;;;;;;4290197;33;20214;-67
2022/04/04 00:33:35;;;;;;;6.43;4.47;;;;;;;;;;4289908;33;20198;-67
2022/04/04 00:36:02;;;;;;;6.72;4.47;;;;;;;;;;4277114;33;20174;-67
2022/04/04 00:38:28;;;;;;;6.37;4.15;;;;;;;;;;4276635;33;20141;-67
2022/04/04 00:40:54;;;;;;;6.20;4.47;;;;;;;;;;4264829;33;20115;-67
2022/04/04 00:43:20;;;;;;;7.68;6.62;;;;;;;;;;4289971;33;20206;-67
2022/04/04 00:45:46;;;;;;;6.05;5.45;;;;;;;;;;4290229;33;20107;-66
2022/04/04 00:48:12;;;;;;;7.15;5.07;;;;;;;;;;4276690;33;20297;-67
2022/04/04 00:50:38;;;;;;;7.75;5.10;;;;;;;;;;4289939;33;20534;-67
2022/04/04 00:53:10;;;;;;;7.37;6.10;;;;;;;;;;4276648;33;20111;-66
2022/04/04 00:55:36;;;;;;;6.30;5.10;;;;;;;;;;4264265;33;20111;-64
2022/04/04 00:58:13;;;;;;;6.10;4.55;;;;;;;;;;4276409;33;20114;-63
2022/04/04 01:00:40;;;;;;;4.78;4.28;;;;;;;;;;4264569;33;20127;-63
2022/04/04 01:03:09;;;;;;;5.80;4.90;;;;;;;;;;4264743;33;20116;-64
2022/04/04 01:05:35;;;;;;;5.30;4.75;;;;;;;;;;4264228;33;20530;-65
2022/04/04 01:08:01;;;;;;;6.87;5.18;;;;;;;;;;4289868;33;20201;-65
2022/04/04 01:10:28;;;;;;;12.05;5.93;;;;;;;;;;4289839;33;20531;-65
2022/04/04 01:12:55;;;;;;;8.77;5.40;;;;;;;;;;4264650;33;20211;-64
2022/04/04 01:15:23;;;;;;;10.77;5.70;;;;;;;;;;4289748;33;20107;-64
2022/04/04 01:17:50;;;;;;;7.72;5.62;;;;;;;;;;4276528;33;20530;-64
2022/04/04 01:20:16;;;;;;;7.82;5.43;;;;;;;;;;4276526;33;20102;-64
2022/04/04 01:22:49;;;;;;;7.97;5.78;;;;;;;;;;4289755;33;20131;-63
2022/04/04 01:25:16;;;;;;;7.57;5.40;;;;;;;;;;4289611;33;20538;-63
2022/04/04 01:27:46;;;;;;;6.80;5.43;;;;;;;;;;4276497;33;20531;-63
2022/04/04 01:30:13;;;;;;;8.30;5.37;;;;;;;;;;4275431;33;20103;-64
2022/04/04 01:32:39;;;;;;;12.30;5.20;;;;;;;;;;4276310;33;20100;-64
2022/04/04 01:35:06;;;;;;;10.90;5.85;;;;;;;;;;4289473;33;20515;-64
2022/04/04 01:37:32;;;;;;;6.40;4.97;;;;;;;;;;4276456;33;20132;-63
2022/04/04 01:40:01;;;;;;;7.15;5.07;;;;;;;;;;4289773;33;20544;-64
2022/04/04 01:42:27;;;;;;;7.25;5.22;;;;;;;;;;4289417;33;20128;-64
2022/04/04 01:44:53;;;;;;;9.55;5.57;;;;;;;;;;4289451;33;20123;-65
2022/04/04 01:47:19;;;;;;;9.88;5.50;;;;;;;;;;4289567;33;20141;-69
2022/04/04 01:50:21;;;;;;;6.68;5.43;;;;;;;;;;4289552;33;20191;-64
2022/04/04 01:53:25;;;;;;;12.00;5.20;;;;;;;;;;4265210;33;20100;-65
2022/04/04 01:55:32;;;;;;;8.35;5.53;;;;;;;;;;4289575;33;20099;-64
2022/04/04 01:57:58;;;;;;;7.97;5.72;;;;;;;;;;4289380;33;20123;-64
2022/04/04 02:00:24;;;;;;;7.15;5.72;;;;;;;;;;4289361;33;20594;-64
2022/04/04 02:02:50;;;;;;;9.05;5.20;;;;;;;;;;4275969;33;20610;-64
2022/04/04 02:05:16;;;;;;;6.22;5.18;;;;;;;;;;4275779;33;20115;-64
2022/04/04 02:07:42;;;;;;;8.40;5.10;;;;;;;;;;4289525;33;20132;-64
2022/04/04 02:10:08;;;;;;;8.65;4.70;;;;;;;;;;4264035;33;20120;-64
2022/04/04 02:12:34;;;;;;;12.85;6.60;;;;;;;;;;4275994;33;20219;-65
2022/04/04 02:15:00;;;;;;;8.68;6.40;;;;;;;;;;4263868;33;20131;-65
2022/04/04 02:17:26;;;;;;;5.82;5.20;;;;;;;;;;4275732;33;20831;-65
2022/04/04 02:19:52;;;;;;;11.05;5.70;;;;;;;;;;4263849;33;20122;-64
2022/04/04 02:22:21;;;;;;;8.35;5.80;;;;;;;;;;4289102;33;20096;-65
2022/04/04 02:24:47;;;;;;;7.50;5.60;;;;;;;;;;4288931;33;20127;-65
2022/04/04 02:27:13;;;;;;;7.60;5.40;;;;;;;;;;4289138;33;20294;-64
2022/04/04 02:29:42;;;;;;;8.07;5.50;;;;;;;;;;4275963;33;20123;-64
2022/04/04 02:32:13;;;;;;;9.90;5.20;;;;;;;;;;4268781;33;20126;-67
2022/04/04 02:34:39;;;;;;;6.18;5.57;;;;;;;;;;4277015;33;20147;-68
2022/04/04 02:37:05;;;;;;;10.38;5.82;;;;;;;;;;4288900;33;20115;-68
2022/04/04 02:39:31;;;;;;;6.40;5.70;;;;;;;;;;4275515;33;20198;-68
2022/04/04 02:41:57;;;;;;;9.55;6.22;;;;;;;;;;4289065;33;20605;-66
2022/04/04 02:44:23;;;;;;;9.63;6.12;;;;;;;;;;4286389;33;20123;-66
2022/04/04 02:46:49;;;;;;;6.85;5.72;;;;;;;;;;4280419;33;20108;-66
2022/04/04 02:49:15;;;;;;;9.90;6.40;;;;;;;;;;4280325;33;20194;-66
2022/04/04 02:51:41;;;;;;;6.78;5.72;;;;;;;;;;4281194;33;20131;-67
2022/04/04 02:54:10;;;;;;;12.18;5.93;;;;;;;;;;4279932;33;20115;-66
2022/04/04 02:56:41;;;;;;;13.48;6.30;;;;;;;;;;4278769;33;20190;-66
2022/04/04 02:59:09;;;;;;;7.07;5.65;;;;;;;;;;4283324;33;20576;-64
2022/04/04 03:01:38;;;;;;;7.85;5.78;;;;;;;;;;4288215;33;20111;-65
2022/04/04 03:04:04;;;;;;;7.37;5.68;;;;;;;;;;4282924;33;20194;-65
2022/04/04 03:06:30;;;;;;;9.35;6.40;;;;;;;;;;4287595;33;20131;-67
2022/04/04 03:08:56;;;;;;;12.95;6.53;;;;;;;;;;4288515;33;20205;-64
2022/04/04 03:11:23;;;;;;;7.65;6.37;;;;;;;;;;4286915;33;20127;-65
2022/04/04 03:13:49;;;;;;;13.00;7.00;;;;;;;;;;4273797;33;20112;-65
2022/04/04 03:16:15;;;;;;;17.42;8.75;;;;;;;;;;4273596;33;20123;-66
2022/04/04 03:18:41;;;;;;;19.65;10.48;;;;;;;;;;4288319;33;20107;-66
2022/04/04 03:21:08;;;;;;;16.98;11.10;;;;;;;;;;4273747;33;20206;-66
2022/04/04 03:23:39;;;;;;;15.05;10.30;;;;;;;;;;4274052;33;20107;-67
2022/04/04 03:26:06;;;;;;;15.95;10.35;;;;;;;;;;4274239;33;20626;-64
2022/04/04 03:28:32;;;;;;;25.70;16.15;;;;;;;;;;4272531;33;20116;-66
2022/04/04 03:30:59;;;;;;;20.02;13.77;;;;;;;;;;4274073;33;20124;-67
2022/04/04 03:33:25;;;;;;;16.35;11.23;;;;;;;;;;4248955;33;20110;-65
2022/04/04 03:35:51;;;;;;;16.77;10.93;;;;;;;;;;4248972;33;20100;-65
2022/04/04 03:38:17;;;;;;;17.12;11.40;;;;;;;;;;4274003;33;20120;-67
2022/04/04 03:40:44;;;;;;;16.92;10.50;;;;;;;;;;4260678;33;20124;-66
2022/04/04 03:43:11;;;;;;;18.10;11.05;;;;;;;;;;4273871;33;20135;-65
2022/04/04 03:45:37;;;;;;;20.73;12.88;;;;;;;;;;4260600;33;20194;-64
2022/04/04 03:48:03;;;;;;;19.58;12.02;;;;;;;;;;4273832;33;20539;-65
2022/04/04 03:50:29;;;;;;;20.33;14.30;;;;;;;;;;4260540;33;20128;-65
2022/04/04 03:52:56;;;;;;;19.87;14.40;;;;;;;;;;4275346;33;20146;-65
2022/04/04 03:55:24;;;;;;;24.08;13.35;;;;;;;;;;4276088;33;20210;-65
2022/04/04 03:57:51;;;;;;;24.02;13.07;;;;;;;;;;4276114;33;20093;-66
2022/04/04 04:00:18;;;;;;;20.30;12.70;;;;;;;;;;4262565;33;20105;-63
2022/04/04 04:02:44;;;;;;;18.15;11.60;;;;;;;;;;4276009;33;20119;-65
2022/04/04 04:05:10;;;;;;;20.12;12.35;;;;;;;;;;4251123;33;20515;-64
2022/04/04 04:07:37;;;;;;;23.52;12.50;;;;;;;;;;4275839;33;20463;-64
2022/04/04 04:10:04;;;;;;;17.40;11.30;;;;;;;;;;4275937;33;20127;-65
2022/04/04 04:12:31;;;;;;;19.15;12.48;;;;;;;;;;4262887;33;20147;-65
2022/04/04 04:14:57;;;;;;;21.12;13.10;;;;;;;;;;4275928;33;20120;-65
2022/04/04 04:17:24;;;;;;;18.02;11.02;;;;;;;;;;4275826;33;20132;-65
2022/04/04 04:22:36;;;;;;;11.15;7.82;;;;;;;;;;4276114;33;20121;-65
2022/04/04 04:25:03;;;;;;;11.30;7.75;;;;;;;;;;4276025;33;20202;-65
2022/04/04 04:27:29;;;;;;;7.75;6.45;;;;;;;;;;4275871;33;20107;-65
2022/04/04 04:29:55;;;;;;;7.87;6.22;;;;;;;;;;4262515;33;20093;-65
2022/04/04 04:32:21;;;;;;;7.22;6.05;;;;;;;;;;4275958;33;20128;-65
2022/04/04 04:34:50;;;;;;;8.45;6.10;;;;;;;;;;4262454;33;20488;-66
2022/04/04 04:37:17;;;;;;;8.40;6.45;;;;;;;;;;4275661;33;20146;-64
2022/04/04 04:39:43;;;;;;;10.40;6.82;;;;;;;;;;4275679;33;20143;-65
2022/04/04 04:42:10;;;;;;;9.23;6.22;;;;;;;;;;4275649;33;20093;-65
2022/04/04 04:44:36;;;;;;;7.05;6.35;;;;;;;;;;4262316;33;20092;-64
2022/04/04 04:47:03;;;;;;;8.93;6.50;;;;;;;;;;4275717;33;20729;-65
2022/04/04 04:49:29;;;;;;;7.65;6.85;;;;;;;;;;4275659;33;20123;-65
2022/04/04 04:51:55;;;;;;;9.48;6.57;;;;;;;;;;4262488;33;20126;-65
2022/04/04 04:54:21;;;;;;;10.25;7.10;;;;;;;;;;4275905;33;20197;-64
2022/04/04 04:56:47;;;;;;;10.35;6.53;;;;;;;;;;4275608;33;20127;-63
2022/04/04 04:59:14;;;;;;;8.60;6.78;;;;;;;;;;4275762;33;20120;-64
2022/04/04 05:01:40;;;;;;;10.70;8.10;;;;;;;;;;4275720;33;20535;-65
2022/04/04 05:04:06;;;;;;;12.90;8.88;;;;;;;;;;4275696;33;20112;-65
2022/04/04 05:06:32;;;;;;;14.77;8.88;;;;;;;;;;4275516;33;20130;-66
2022/04/04 05:09:00;;;;;;;11.07;7.37;;;;;;;;;;4262105;33;20116;-65
2022/04/04 05:11:29;;;;;;;12.23;8.07;;;;;;;;;;4275354;33;20104;-65
2022/04/04 05:13:55;;;;;;;15.52;9.68;;;;;;;;;;4261988;33;20336;-65
2022/04/04 05:16:28;;;;;;;13.55;8.70;;;;;;;;;;4275467;33;20123;-66
2022/04/04 05:18:54;;;;;;;11.50;8.77;;;;;;;;;;4262136;33;20116;-65
2022/04/04 05:21:21;;;;;;;10.45;7.93;;;;;;;;;;4261960;33;20108;-66
2022/04/04 05:23:47;;;;;;;9.90;8.15;;;;;;;;;;4275332;33;20104;-66
2022/04/04 05:26:13;;;;;;;10.43;6.87;;;;;;;;;;4261977;33;20199;-66
2022/04/04 05:28:39;;;;;;;7.05;6.00;;;;;;;;;;4275616;33;20511;-65
2022/04/04 05:31:05;;;;;;;10.40;6.45;;;;;;;;;;4262072;33;20101;-66
2022/04/04 05:33:31;;;;;;;14.05;7.32;;;;;;;;;;4275185;33;20096;-65
2022/04/04 05:35:57;;;;;;;11.95;7.18;;;;;;;;;;4275191;33;20135;-64
2022/04/04 05:38:23;;;;;;;10.70;7.70;;;;;;;;;;4275301;33;20123;-64
2022/04/04 05:40:49;;;;;;;14.75;8.32;;;;;;;;;;4262239;33;20110;-64
2022/04/04 05:43:15;;;;;;;12.18;8.18;;;;;;;;;;4275300;33;20096;-66
2022/04/04 05:45:41;;;;;;;12.70;8.43;;;;;;;;;;4275013;33;20119;-64
2022/04/04 05:48:07;;;;;;;12.18;8.93;;;;;;;;;;4275246;33;20108;-63
2022/04/04 05:50:34;;;;;;;20.90;10.23;;;;;;;;;;4261797;33;20131;-63
2022/04/04 05:53:00;;;;;;;16.85;11.00;;;;;;;;;;4275008;33;20102;-65
2022/04/04 05:55:26;;;;;;;22.13;12.55;;;;;;;;;;4274938;33;20110;-65
2022/04/04 05:57:52;;;;;;;24.35;13.48;;;;;;;;;;4274970;33;20093;-63
2022/04/04 06:00:18;;;;;;;25.62;14.05;;;;;;;;;;4275036;33;20274;-65
2022/04/04 06:02:46;;;;;;;29.05;15.02;;;;;;;;;;4274897;33;20123;-66
2022/04/04 06:05:12;;;;;;;35.50;23.48;;;;;;;;;;4261418;33;20128;-65
2022/04/04 06:07:39;;;;;;;23.30;15.70;;;;;;;;;;4274864;33;20456;-65
2022/04/04 06:10:07;;;;;;;24.08;15.32;;;;;;;;;;4261842;33;20179;-65
2022/04/04 06:12:36;;;;;;;25.98;15.65;;;;;;;;;;4261578;33;20519;-65
2022/04/04 06:15:03;;;;;;;22.05;14.40;;;;;;;;;;4249676;33;20515;-65
2022/04/04 06:17:29;;;;;;;20.25;13.32;;;;;;;;;;4261612;33;20116;-65
2022/04/04 06:19:56;;;;;;;22.20;13.38;;;;;;;;;;4274881;33;20115;-67
2022/04/04 06:22:22;;;;;;;22.52;13.02;;;;;;;;;;4274762;33;20107;-66
2022/04/04 06:24:49;;;;;;;15.23;10.85;;;;;;;;;;4274690;33;20104;-66
2022/04/04 06:27:16;;;;;;;15.02;10.40;;;;;;;;;;4274711;33;20118;-64
2022/04/04 06:29:43;;;;;;;17.08;10.82;;;;;;;;;;4261343;33;20110;-65
2022/04/04 06:32:12;;;;;;;21.98;11.05;;;;;;;;;;4261285;33;20114;-65
2022/04/04 06:34:38;;;;;;;16.50;10.23;;;;;;;;;;4274588;33;20130;-63
2022/04/04 06:37:04;;;;;;;13.15;8.27;;;;;;;;;;4274677;33;20099;-63
2022/04/04 06:39:31;;;;;;;17.73;9.35;;;;;;;;;;4274668;33;20120;-63
2022/04/04 06:41:57;;;;;;;16.62;9.95;;;;;;;;;;4274467;33;20178;-65
2022/04/04 06:44:24;;;;;;;18.02;10.55;;;;;;;;;;4274584;33;20198;-64
2022/04/04 06:46:51;;;;;;;16.60;9.88;;;;;;;;;;4274684;33;20186;-65
2022/04/04 06:49:17;;;;;;;15.82;9.73;;;;;;;;;;4274525;33;20147;-66
2022/04/04 06:51:43;;;;;;;20.45;10.25;;;;;;;;;;4274889;33;20460;-64
2022/04/04 06:54:09;;;;;;;18.67;9.82;;;;;;;;;;4238126;33;20460;-67
2022/04/04 06:56:35;;;;;;;15.93;10.13;;;;;;;;;;4274737;33;20108;-66
2022/04/04 06:59:02;;;;;;;16.67;9.02;;;;;;;;;;4261517;33;20099;-66
2022/04/04 07:01:29;;;;;;;12.45;8.73;;;;;;;;;;4261008;33;20520;-65
2022/04/04 07:03:55;;;;;;;15.57;7.87;;;;;;;;;;4274321;33;20187;-65
2022/04/04 07:06:21;;;;;;;15.40;7.97;;;;;;;;;;4274560;33;20088;-65
2022/04/04 07:08:47;;;;;;;11.70;6.37;;;;;;;;;;4274202;33;20092;-65
2022/04/04 07:11:13;;;;;;;14.07;6.87;;;;;;;;;;4274314;33;20131;-63
2022/04/04 07:13:40;;;;;;;12.95;7.53;;;;;;;;;;4274120;33;20120;-65
2022/04/04 07:16:06;;;;;;;15.60;6.93;;;;;;;;;;4249379;33;20540;-65
2022/04/04 07:18:32;;;;;;;14.75;7.10;;;;;;;;;;4274148;33;20186;-65
2022/04/04 07:20:58;;;;;;;13.30;7.30;;;;;;;;;;4274189;33;20186;-67
2022/04/04 07:23:24;;;;;;;16.90;7.93;;;;;;;;;;4260651;33;20117;-65
2022/04/04 07:25:50;;;;;;;10.10;7.22;;;;;;;;;;4273993;33;20120;-66
2022/04/04 07:28:16;;;;;;;12.63;7.25;;;;;;;;;;4275649;33;20120;-64
2022/04/04 07:30:45;;;;;;;14.93;7.87;;;;;;;;;;4276869;33;20100;-63
2022/04/04 07:33:15;;;;;;;11.73;6.55;;;;;;;;;;4276297;33;20118;-67
2022/04/04 07:35:42;;;;;;;13.68;6.57;;;;;;;;;;4263715;33;20584;-66
2022/04/04 07:38:09;;;;;;;14.73;6.93;;;;;;;;;;4263039;33;20614;-66
2022/04/04 07:40:35;;;;;;;14.52;6.28;;;;;;;;;;4263059;33;20183;-66
2022/04/04 07:43:01;;;;;;;12.00;5.15;;;;;;;;;;4262944;33;20110;-66
2022/04/04 07:45:29;;;;;;;10.27;5.85;;;;;;;;;;4276186;33;20116;-63
2022/04/04 07:47:56;;;;;;;13.10;6.25;;;;;;;;;;4276271;33;20597;-66
2022/04/04 07:50:22;;;;;;;13.48;5.95;;;;;;;;;;4276142;33;20563;-63
2022/04/04 07:52:48;;;;;;;13.48;5.85;;;;;;;;;;4276220;33;20178;-64
2022/04/04 07:55:15;;;;;;;16.37;7.40;;;;;;;;;;4276129;33;20124;-65
2022/04/04 07:57:41;;;;;;;14.45;6.40;;;;;;;;;;4263080;33;20092;-66
2022/04/04 08:00:09;;;;;;;16.75;7.10;;;;;;;;;;4276136;33;20131;-66
2022/04/04 08:02:35;;;;;;;21.67;9.02;;;;;;;;;;4250963;33;20541;-67
2022/04/04 08:05:02;;;;;;;12.85;6.32;;;;;;;;;;4270390;33;20116;-65
2022/04/04 08:07:28;;;;;;;21.77;6.05;;;;;;;;;;4274586;33;20514;-68
2022/04/04 08:09:55;;;;;;;17.30;5.55;;;;;;;;;;4275984;33;20115;-68
2022/04/04 08:12:25;;;;;;;10.85;5.57;;;;;;;;;;4262480;33;20119;-67
2022/04/04 08:14:51;;;;;;;14.80;5.30;;;;;;;;;;4262611;33;20512;-67
2022/04/04 08:17:17;;;;;;;13.82;6.18;;;;;;;;;;4262503;33;20101;-67
2022/04/04 08:19:43;;;;;;;15.32;5.22;;;;;;;;;;4276053;33;20205;-67
2022/04/04 08:22:09;;;;;;;19.02;6.40;;;;;;;;;;4275909;33;20116;-67
2022/04/04 08:24:35;;;;;;;12.07;4.93;;;;;;;;;;4275923;33;20606;-68
2022/04/04 08:27:02;;;;;;;15.77;5.57;;;;;;;;;;4262608;33;20132;-67
2022/04/04 08:29:28;;;;;;;15.95;6.82;;;;;;;;;;4275812;33;20099;-67
2022/04/04 08:31:54;;;;;;;10.65;4.62;;;;;;;;;;4276178;33;20539;-67
2022/04/04 08:34:20;;;;;;;15.38;5.28;;;;;;;;;;4275707;33;20539;-68
2022/04/04 08:36:46;;;;;;;14.68;5.57;;;;;;;;;;4262911;33;20482;-69
2022/04/04 08:39:12;;;;;;;18.02;6.32;;;;;;;;;;4275275;33;20475;-70
2022/04/04 08:41:39;;;;;;;20.12;6.22;;;;;;;;;;4262574;33;20139;-68
2022/04/04 08:44:05;;;;;;;11.85;5.15;;;;;;;;;;4275643;33;20105;-70
2022/04/04 08:46:33;;;;;;;17.42;5.82;;;;;;;;;;4275739;33;20131;-72
2022/04/04 08:49:01;;;;;;;15.05;5.87;;;;;;;;;;4275902;33;20116;-75
2022/04/04 08:51:28;;;;;;;12.37;4.80;;;;;;;;;;4262652;33;20195;-75
2022/04/04 08:53:55;;;;;;;19.17;4.70;;;;;;;;;;4251282;33;20117;-73
2022/04/04 08:56:23;;;;;;;10.20;4.57;;;;;;;;;;4276236;33;20096;-79
2022/04/04 08:58:51;;;;;;;6.68;3.78;;;;;;;;;;4276229;33;20127;-78
2022/04/04 09:01:19;;;;;;;17.23;4.30;;;;;;;;;;4276452;33;20526;-78
2022/04/04 09:03:45;;;;;;;6.70;2.75;;;;;;;;;;4276554;33;20120;-75
2022/04/04 09:06:11;;;;;;;12.02;4.45;;;;;;;;;;4263363;33;20196;-78
2022/04/04 09:08:48;;;;;;;10.20;3.58;;;;;;;;;;4272415;33;20142;-77
2022/04/04 09:11:15;;;;;;;8.98;3.42;;;;;;;;;;4270888;33;20131;-70
2022/04/04 09:13:41;;;;;;;5.87;3.00;;;;;;;;;;4259038;33;20124;-70
2022/04/04 09:16:08;;;;;;;9.07;4.10;;;;;;;;;;4255635;33;20123;-67
2022/04/04 09:18:37;;;;;;;12.95;4.40;;;;;;;;;;4231200;33;20117;-70
2022/04/04 09:21:04;;;;;;;6.40;3.65;;;;;;;;;;4265686;33;20120;-67
2022/04/04 09:23:56;;;;;;;8.15;3.20;;;;;;;;;;4270741;33;20132;-67
2022/04/04 09:26:39;;;;;;;7.55;2.50;;;;;;;;;;4270227;33;20124;-69
2022/04/04 09:29:07;;;;;;;7.95;3.50;;;;;;;;;;4264597;33;20755;-70
2022/04/04 09:31:33;;;;;;;5.30;3.62;;;;;;;;;;4260315;33;20135;-68
2022/04/04 09:34:01;;;;;;;4.28;2.85;;;;;;;;;;4271261;33;20202;-68
2022/04/04 09:36:28;;;;;;;5.03;3.50;;;;;;;;;;4257623;33;20706;-68
2022/04/04 09:39:15;;;;;;;13.90;3.33;;;;;;;;;;4274913;33;20523;-70
2022/04/04 09:41:41;;;;;;;10.85;3.75;;;;;;;;;;4273166;33;20215;-70
2022/04/04 09:44:16;;;;;;;8.57;3.92;;;;;;;;;;4261407;33;20088;-69
2022/04/04 09:46:44;;;;;;;5.93;2.72;;;;;;;;;;4266049;33;20662;-69
2022/04/04 09:49:16;;;;;;;4.95;3.40;;;;;;;;;;4274299;33;20114;-69
2022/04/04 09:51:50;;;;;;;6.22;3.58;;;;;;;;;;4274108;33;20107;-67
2022/04/04 09:54:18;;;;;;;4.12;2.90;;;;;;;;;;4273193;33;20100;-67
2022/04/04 09:56:46;;;;;;;4.75;3.47;;;;;;;;;;4274624;33;20532;-68
2022/04/04 09:59:16;;;;;;;6.32;3.37;;;;;;;;;;4274886;33;20112;-69
2022/04/04 10:01:44;;;;;;;7.10;4.00;;;;;;;;;;4274786;33;20582;-68
2022/04/04 10:04:12;;;;;;;2.70;2.20;;;;;;;;;;4274510;33;20104;-69
2022/04/04 10:06:42;;;;;;;9.50;3.62;;;;;;;;;;4274643;33;20195;-68
2022/04/04 10:09:09;;;;;;;4.55;2.72;;;;;;;;;;4274724;33;20203;-68
2022/04/04 10:11:38;;;;;;;5.35;2.50;;;;;;;;;;4261520;33;20440;-67
2022/04/04 10:14:04;;;;;;;3.92;2.80;;;;;;;;;;4272968;33;20135;-69
2022/04/04 10:16:32;;;;;;;3.60;2.60;;;;;;;;;;4261013;33;20112;-68
2022/04/04 10:18:58;;;;;;;8.70;3.05;;;;;;;;;;4261092;33;20115;-68
2022/04/04 10:21:26;;;;;;;5.20;3.42;;;;;;;;;;4273213;33;20130;-68
2022/04/04 10:23:57;;;;;;;6.87;2.40;;;;;;;;;;4261690;33;20201;-68
2022/04/04 10:26:32;;;;;;;3.30;2.60;;;;;;;;;;4272841;33;20127;-70
2022/04/04 10:29:13;;;;;;;2.92;2.10;;;;;;;;;;4274559;33;20493;-70
2022/04/04 10:31:44;;;;;;;3.35;2.05;;;;;;;;;;4274256;33;20139;-69
2022/04/04 10:34:13;;;;;;;3.25;2.08;;;;;;;;;;4274235;33;20527;-71
2022/04/04 10:36:56;;;;;;;1.83;1.62;;;;;;;;;;4274294;33;20647;-70
2022/04/04 10:39:41;;;;;;;2.87;2.30;;;;;;;;;;4274410;33;20172;-69
2022/04/04 10:42:25;;;;;;;1.87;1.60;;;;;;;;;;4273797;33;20214;-70
2022/04/04 10:45:07;;;;;;;4.65;2.15;;;;;;;;;;4274325;33;20098;-69
2022/04/04 10:47:35;;;;;;;1.77;1.60;;;;;;;;;;4271776;33;20088;-66
2022/04/04 10:50:23;;;;;;;1.40;1.30;;;;;;;;;;4255267;33;20217;-66
2022/04/04 10:52:51;;;;;;;1.70;1.60;;;;;;;;;;4260407;33;20092;-63
2022/04/04 10:55:24;;;;;;;1.37;1.27;;;;;;;;;;4260925;33;20524;-65
2022/04/04 10:57:52;;;;;;;1.25;1.25;;;;;;;;;;4273909;33;20123;-64
2022/04/04 11:00:18;;;;;;;1.30;1.25;;;;;;;;;;4273908;33;20130;-66
2022/04/04 11:02:44;;;;;;;1.33;1.27;;;;;;;;;;4250858;33;20179;-65
2022/04/04 11:08:06;;;;;;;1.40;1.30;;;;;;;;;;4276099;33;20206;-65
2022/04/04 11:10:44;;;;;;;1.08;1.08;;;;;;;;;;4276259;33;20202;-66
2022/04/04 11:13:15;;;;;;;1.20;1.20;;;;;;;;;;4275955;33;20214;-65
2022/04/04 11:15:55;;;;;;;1.52;1.42;;;;;;;;;;4276262;33;20198;-66
2022/04/04 11:18:24;;;;;;;1.33;1.33;;;;;;;;;;4275760;33;20140;-66
2022/04/04 11:20:53;;;;;;;1.25;1.20;;;;;;;;;;4274875;33;20291;-66
2022/04/04 11:23:21;;;;;;;1.10;1.10;;;;;;;;;;4275609;33;20118;-65
2022/04/04 11:25:48;;;;;;;1.20;1.10;;;;;;;;;;4276232;33;20120;-64
2022/04/04 11:28:17;;;;;;;1.30;1.20;;;;;;;;;;4275787;33;20214;-63
2022/04/04 11:30:43;;;;;;;1.12;1.12;;;;;;;;;;4276183;33;20276;-64
2022/04/04 11:33:17;;;;;;;1.10;1.10;;;;;;;;;;4262831;33;20507;-62
2022/04/04 11:35:46;;;;;;;1.30;1.20;;;;;;;;;;4262872;33;20100;-63
2022/04/04 11:38:12;;;;;;;1.10;1.10;;;;;;;;;;4275639;33;20539;-64
2022/04/04 11:40:39;;;;;;;1.10;1.10;;;;;;;;;;4262888;33;20108;-63
2022/04/04 11:43:13;;;;;;;1.80;1.70;;;;;;;;;;4276131;33;20106;-64
2022/04/04 11:45:41;;;;;;;1.80;1.67;;;;;;;;;;4276407;33;20104;-64
2022/04/04 11:48:17;;;;;;;1.10;1.10;;;;;;;;;;4276049;33;20112;-63
2022/04/04 11:50:44;;;;;;;1.33;1.23;;;;;;;;;;4276326;33;20131;-65
2022/04/04 11:53:12;;;;;;;1.20;1.20;;;;;;;;;;4276096;33;20526;-64
2022/04/04 11:55:41;;;;;;;2.92;1.17;;;;;;;;;;4276095;33;20112;-64
2022/04/04 11:58:12;;;;;;;1.08;1.05;;;;;;;;;;4276032;33;20468;-63
2022/04/04 12:00:40;;;;;;;1.17;1.17;;;;;;;;;;4263421;33;20543;-64
2022/04/04 12:03:16;;;;;;;1.37;1.23;;;;;;;;;;4276067;33;20203;-63
2022/04/04 12:05:47;;;;;;;1.10;1.10;;;;;;;;;;4275971;33;20116;-64
2022/04/04 12:08:15;;;;;;;1.25;1.25;;;;;;;;;;4273431;33;20116;-62
2022/04/04 12:10:42;;;;;;;1.37;1.30;;;;;;;;;;4275973;33;20123;-63
2022/04/04 12:13:13;;;;;;;2.00;1.20;;;;;;;;;;4262376;33;20115;-63
2022/04/04 12:15:43;;;;;;;1.23;1.23;;;;;;;;;;4275816;33;20096;-65
2022/04/04 12:18:11;;;;;;;1.33;1.25;;;;;;;;;;4276097;33;20607;-65
2022/04/04 12:20:42;;;;;;;1.70;1.40;;;;;;;;;;4275725;33;20119;-65
2022/04/04 12:25:58;;;;;;;3.08;1.50;;;;;;;;;;4274339;33;20128;-67
2022/04/04 12:28:29;;;;;;;1.62;1.40;;;;;;;;;;4250905;33;20179;-66
2022/04/04 12:30:55;;;;;;;1.40;1.30;;;;;;;;;;4274682;33;20123;-65
2022/04/04 12:33:32;;;;;;;1.55;1.40;;;;;;;;;;4262474;33;20111;-66
2022/04/04 12:35:59;;;;;;;1.40;1.30;;;;;;;;;;4275805;33;20111;-65
2022/04/04 12:38:26;;;;;;;2.10;1.30;;;;;;;;;;4275645;33;20106;-68
2022/04/04 12:41:27;;;;;;;1.70;1.60;;;;;;;;;;4262355;33;20198;-67
2022/04/04 12:44:05;;;;;;;6.05;1.65;;;;;;;;;;4261173;33;20096;-68
2022/04/04 12:46:33;;;;;;;1.27;1.20;;;;;;;;;;4275601;33;20127;-69
2022/04/04 12:49:19;;;;;;;1.48;1.37;;;;;;;;;;4275563;33;20110;-68
2022/04/04 12:51:58;;;;;;;2.65;1.20;;;;;;;;;;4275987;33;20116;-67
2022/04/04 12:54:30;;;;;;;1.98;1.30;;;;;;;;;;4275344;33;20128;-68
2022/04/04 12:56:57;;;;;;;1.20;1.20;;;;;;;;;;4274955;33;20099;-68
2022/04/04 12:59:25;;;;;;;1.77;1.27;;;;;;;;;;4272130;33;20163;-67
2022/04/04 13:02:05;;;;;;;2.15;1.37;;;;;;;;;;4275197;33;20524;-68
2022/04/04 13:04:32;;;;;;;1.77;1.45;;;;;;;;;;4275331;33;20123;-68
2022/04/04 13:07:00;;;;;;;2.08;1.40;;;;;;;;;;4275025;33;20127;-67
2022/04/04 13:09:27;;;;;;;1.55;1.27;;;;;;;;;;4275278;33;20638;-66
2022/04/04 13:11:54;;;;;;;3.20;1.40;;;;;;;;;;4275791;33;20202;-67
2022/04/04 13:14:22;;;;;;;3.90;1.40;;;;;;;;;;4275406;33;20122;-68
2022/04/04 13:17:01;;;;;;;1.33;1.30;;;;;;;;;;4275325;33;20096;-65
2022/04/04 13:19:27;;;;;;;1.10;1.10;;;;;;;;;;4275413;33;20484;-69
2022/04/04 13:21:53;;;;;;;1.45;1.35;;;;;;;;;;4262192;33;20118;-68
2022/04/04 13:24:23;;;;;;;2.30;1.30;;;;;;;;;;4274742;33;20091;-70
2022/04/04 13:26:49;;;;;;;1.37;1.27;;;;;;;;;;4262233;33;20127;-67
2022/04/04 13:29:17;;;;;;;1.75;1.65;;;;;;;;;;4275268;33;20112;-68
2022/04/04 13:31:44;;;;;;;1.70;1.52;;;;;;;;;;4262409;33;20100;-68
2022/04/04 13:34:11;;;;;;;1.62;1.50;;;;;;;;;;4275672;33;20207;-68
2022/04/04 13:36:37;;;;;;;2.45;1.45;;;;;;;;;;4275277;33;20535;-67
2022/04/04 13:39:05;;;;;;;1.85;1.58;;;;;;;;;;4275507;33;20121;-68
2022/04/04 13:41:33;;;;;;;1.75;1.37;;;;;;;;;;4275321;33;20523;-69
2022/04/04 13:44:00;;;;;;;2.20;1.40;;;;;;;;;;4275338;33;20107;-69
2022/04/04 13:46:28;;;;;;;4.12;1.40;;;;;;;;;;4262209;33;20101;-71
2022/04/04 13:48:55;;;;;;;1.65;1.45;;;;;;;;;;4275334;33;20209;-72
2022/04/04 13:51:24;;;;;;;2.15;1.60;;;;;;;;;;4275396;33;20445;-69
2022/04/04 13:53:59;;;;;;;1.50;1.40;;;;;;;;;;4275168;33;20124;-69
2022/04/04 13:56:26;;;;;;;1.75;1.58;;;;;;;;;;4275002;33;20103;-67
2022/04/04 13:58:52;;;;;;;2.90;1.40;;;;;;;;;;4275072;33;20196;-69
2022/04/04 14:01:21;;;;;;;1.50;1.40;;;;;;;;;;4275062;33;20103;-71
2022/04/04 14:03:47;;;;;;;1.50;1.40;;;;;;;;;;4274999;33;20111;-66
2022/04/04 14:06:14;;;;;;;5.97;1.40;;;;;;;;;;4274815;33;20135;-67
2022/04/04 14:08:40;;;;;;;2.75;1.52;;;;;;;;;;4275166;33;20112;-72
2022/04/04 14:11:11;;;;;;;3.37;1.70;;;;;;;;;;4275136;33;20201;-71
2022/04/04 14:13:40;;;;;;;1.83;1.73;;;;;;;;;;4274793;33;20110;-73
2022/04/04 14:16:06;;;;;;;2.87;2.03;;;;;;;;;;4274989;33;20124;-77
2022/04/04 14:18:33;;;;;;;1.70;1.60;;;;;;;;;;4274750;33;20544;-79
2022/04/04 14:20:59;;;;;;;2.33;1.60;;;;;;;;;;4261485;33;20129;-74
2022/04/04 14:23:26;;;;;;;3.15;1.60;;;;;;;;;;4274943;33;20099;-75
2022/04/04 14:25:52;;;;;;;2.85;1.60;;;;;;;;;;4274704;33;20211;-75
2022/04/04 14:28:19;;;;;;;1.60;1.50;;;;;;;;;;4275007;33;20112;-83
2022/04/04 14:30:46;;;;;;;3.85;1.90;;;;;;;;;;4262262;33;20114;-77
2022/04/04 14:33:12;;;;;;;1.70;1.60;;;;;;;;;;4274663;33;20131;-75
2022/04/04 14:35:38;;;;;;;1.80;1.70;;;;;;;;;;4274372;33;20469;-79
2022/04/04 14:38:04;;;;;;;2.12;1.92;;;;;;;;;;4261528;33;20555;-75
2022/04/04 14:40:30;;;;;;;3.70;1.98;;;;;;;;;;4263773;33;20120;-80
2022/04/04 14:42:56;;;;;;;1.90;1.65;;;;;;;;;;4248760;33;20447;-73
2022/04/04 14:45:22;;;;;;;2.75;1.98;;;;;;;;;;4274183;33;20120;-75
2022/04/04 14:47:48;;;;;;;4.18;1.92;;;;;;;;;;4270494;33;20477;-78
2022/04/04 14:50:14;;;;;;;6.95;1.90;;;;;;;;;;4247352;33;20132;-82
2022/04/04 14:52:41;;;;;;;1.73;1.62;;;;;;;;;;4261352;33;20096;-79
2022/04/04 14:55:12;;;;;;;3.65;1.60;;;;;;;;;;4260002;33;20112;-80
2022/04/04 14:57:41;;;;;;;3.42;2.10;;;;;;;;;;4260282;33;20109;-77
2022/04/04 15:00:07;;;;;;;1.60;1.50;;;;;;;;;;4260347;33;20140;-75
2022/04/04 15:02:36;;;;;;;2.17;1.80;;;;;;;;;;4247284;33;20136;-76
2022/04/04 15:05:06;;;;;;;2.30;1.95;;;;;;;;;;4261621;33;21149;-78
2022/04/04 15:07:32;;;;;;;2.17;1.83;;;;;;;;;;4274144;33;20142;-78
2022/04/04 15:10:00;;;;;;;1.92;1.73;;;;;;;;;;4273468;33;20213;-77
2022/04/04 15:12:27;;;;;;;1.60;1.50;;;;;;;;;;4264210;33;20115;-77